Airfield :
LOGIN :

Register | Disclaimer

   EN    FR    IT 

 










Legend :    VFR   Marginal VFR   IFR   Intensive IFR   Very Intensive IFR
Visi :
Ceiling :
>= 8 km
>= 3000ft
5 to 8 km
1000 to 3000 ft
1500m to 5 km
500 to 1000 ft
800 to 1500m
200 to 500 ft
< 800m
< 200 ft
Symbols :   Thunderstorms  Fog  Heavy snow  Heavy precipitations  Wind > 20 kt
SIGMETs :     Misc.  Thunderstorms  Icing  Turbulence  Mountain Waves  Volcanic Ashes






- Airport Elevation : 177 ft
- IATA code : AYT


LTAI - Antalya

CURRENT METAR :
  • 210150Z 35005KT 9999 FEW020CB BKN030 12/10 Q1008 BECMG 19012KT

EXPIRED METARs :
  • 210120Z 04002KT 9999 FEW020CB BKN030 12/10 Q1008 BECMG 19012KT
  • 210050Z VRB01KT 9999 FEW020CB BKN030 13/10 Q1009 RESHRA BECMG 19012KT
  • 210020Z 21006KT 9999 -SHRA FEW020CB BKN030 14/10 Q1009 NOSIG RMK RWY18C 22005KT 170V230 RWY36R 21007KT RWY18L 21007KT
  • 202350Z 22012KT 190V250 9999 -SHRA BKN030 14/09 Q1009 NOSIG RMK RWY18C 22005KT 160V260 RWY36R 21008KT RWY18L 19009KT
  • 202320Z 15007KT 9999 -SHRA BKN030 14/09 Q1010 NOSIG RMK RWY18C 15008KT RWY36R 15008KT RWY18L 16009KT

TAF TAF LTAI
Valid from the 21 at 00:00 until the 22 at 00:00 UTC


202240Z 2100/2124 19012KT 9999 -SHRA BKN030
BECMG 2100/2102 FEW020CB BKN030
BECMG 2103/2106 34008KT
PROB40
TEMPO 2111/2114 17012KT 4000 TSRA
BECMG 2118/2121 SCT030 BKN100



MET'MAP, your aeronautical weather chart ! - Copyright ORBIFLY December 2007 - Disclaimer

ORBIFLY MET'MAP TEAM :

Programming & Development : Alexandra Zaïnal
Concept & original design : Baudouin d'Aumeries
Assistance for programming : Marc-Olivier Méhu
Technical & hardware support : Manuel Goepfert

Contact : metmap@orbifly.com




SOURCES & CREDITS :

   NOAA